createdAt,value
2023-03-15T00:02:07.476Z,77.63
2023-03-15T00:04:35.512Z,77.16
2023-03-15T00:07:03.378Z,77.51
2023-03-15T00:09:31.085Z,77.24
2023-03-15T00:11:58.779Z,77.10
2023-03-15T00:14:26.635Z,76.96
2023-03-15T00:16:54.944Z,76.96
2023-03-15T00:19:22.628Z,77.17
2023-03-15T00:21:50.287Z,76.85
2023-03-15T00:24:18.002Z,77.04
2023-03-15T00:26:45.792Z,76.83
2023-03-15T00:29:13.543Z,76.79
2023-03-15T00:31:41.423Z,76.51
2023-03-15T00:34:09.233Z,76.58
2023-03-15T00:36:37.900Z,76.54
2023-03-15T00:39:05.686Z,76.18
2023-03-15T00:41:34.159Z,76.60
2023-03-15T00:44:03.976Z,76.80
2023-03-15T00:46:32.066Z,76.62
2023-03-15T00:48:59.896Z,76.58
2023-03-15T00:51:27.709Z,77.48
2023-03-15T00:53:55.437Z,77.94
2023-03-15T00:56:30.278Z,78.07
2023-03-15T00:59:00.037Z,78.09
2023-03-15T01:01:30.088Z,78.11
2023-03-15T01:03:58.214Z,78.12
2023-03-15T01:06:28.380Z,78.73
2023-03-15T01:08:57.279Z,78.90
2023-03-15T01:11:28.265Z,79.00
2023-03-15T01:13:59.815Z,78.62
2023-03-15T01:16:29.123Z,78.45
2023-03-15T01:18:57.169Z,78.43
2023-03-15T01:21:26.182Z,78.51
2023-03-15T01:23:54.678Z,79.37
2023-03-15T01:26:23.644Z,79.48
2023-03-15T01:28:52.163Z,79.56
2023-03-15T01:31:24.624Z,79.84
2023-03-15T01:33:52.841Z,79.92
2023-03-15T01:36:21.344Z,79.97
2023-03-15T01:38:52.509Z,80.22
2023-03-15T01:41:26.000Z,80.27
2023-03-15T01:43:54.165Z,80.91
2023-03-15T01:46:25.484Z,81.03
2023-03-15T01:49:07.732Z,81.95
2023-03-15T01:51:41.888Z,82.06
2023-03-15T01:54:20.572Z,82.17
2023-03-15T01:57:04.660Z,82.12
2023-03-15T01:59:51.359Z,82.29
2023-03-15T02:02:23.194Z,82.36
2023-03-15T02:05:13.091Z,82.11
2023-03-15T02:07:50.090Z,82.14
2023-03-15T02:10:45.461Z,82.54
2023-03-15T02:13:19.517Z,82.27
2023-03-15T02:15:47.364Z,82.89
2023-03-15T02:18:22.374Z,82.98
2023-03-15T02:21:11.575Z,82.70
2023-03-15T02:23:39.866Z,82.38
2023-03-15T02:26:18.565Z,82.56
2023-03-15T02:28:47.973Z,82.87
2023-03-15T02:31:16.532Z,83.00
2023-03-15T02:33:47.737Z,83.42
2023-03-15T02:36:25.578Z,83.53
2023-03-15T02:38:54.880Z,83.17
2023-03-15T02:41:37.524Z,83.12
2023-03-15T02:44:24.487Z,83.27
2023-03-15T02:46:56.593Z,83.27
2023-03-15T02:49:31.804Z,83.10
2023-03-15T02:51:59.509Z,83.05
2023-03-15T02:54:27.336Z,82.76
2023-03-15T02:56:55.167Z,82.75
2023-03-15T02:59:22.844Z,82.76
2023-03-15T03:01:51.253Z,82.56
2023-03-15T03:04:19.326Z,82.51
2023-03-15T03:06:47.119Z,82.46
2023-03-15T03:09:19.977Z,82.73
2023-03-15T03:11:47.862Z,82.56
2023-03-15T03:14:15.765Z,82.85
2023-03-15T03:16:43.922Z,82.79
2023-03-15T03:19:15.533Z,82.75
2023-03-15T03:21:44.714Z,82.59
2023-03-15T03:24:16.397Z,82.66
2023-03-15T03:26:46.230Z,82.54
2023-03-15T03:29:16.697Z,82.54
2023-03-15T03:31:46.828Z,82.77
2023-03-15T03:34:15.864Z,82.90
2023-03-15T03:36:44.709Z,82.89
2023-03-15T03:39:16.090Z,83.39
2023-03-15T03:41:45.204Z,83.51
2023-03-15T03:44:13.827Z,83.26
2023-03-15T03:46:43.690Z,82.64
2023-03-15T03:49:14.890Z,83.03
2023-03-15T03:51:42.827Z,82.63
2023-03-15T03:54:10.853Z,82.46
2023-03-15T03:56:39.817Z,82.43
2023-03-15T03:59:07.885Z,82.38
2023-03-15T04:01:48.839Z,82.23
2023-03-15T04:04:16.976Z,82.44
2023-03-15T04:06:46.284Z,82.74
2023-03-15T04:09:17.804Z,82.65
2023-03-15T04:11:48.666Z,82.89
2023-03-15T04:14:18.060Z,82.88
2023-03-15T04:16:48.715Z,83.43
2023-03-15T04:19:18.835Z,83.34
2023-03-15T04:21:47.752Z,83.20
2023-03-15T04:24:24.695Z,83.08
2023-03-15T04:27:14.848Z,83.00
2023-03-15T04:30:05.757Z,83.03
2023-03-15T04:32:58.904Z,83.01
2023-03-15T04:35:45.137Z,83.20
2023-03-15T04:38:32.415Z,83.27
2023-03-15T04:41:19.259Z,83.13
2023-03-15T04:44:11.373Z,83.02
2023-03-15T04:47:02.692Z,82.87
2023-03-15T04:49:50.749Z,82.66
2023-03-15T04:52:51.333Z,82.42
2023-03-15T04:55:48.383Z,82.53
2023-03-15T04:58:41.654Z,82.59
2023-03-15T05:01:32.373Z,82.78
2023-03-15T05:04:14.806Z,82.59
2023-03-15T05:06:55.161Z,82.31
2023-03-15T05:09:41.459Z,82.69
2023-03-15T05:12:26.265Z,82.55
2023-03-15T05:15:13.660Z,82.46
2023-03-15T05:17:55.962Z,82.64
2023-03-15T05:20:43.707Z,82.30
2023-03-15T05:23:26.744Z,82.39
2023-03-15T05:26:07.544Z,82.26
2023-03-15T05:28:58.174Z,82.39
2023-03-15T05:31:58.856Z,82.66
2023-03-15T05:34:54.826Z,82.85
2023-03-15T05:37:49.080Z,82.97
2023-03-15T05:40:33.212Z,82.86
2023-03-15T05:43:39.422Z,82.64
2023-03-15T05:46:16.107Z,82.81
2023-03-15T05:49:01.676Z,82.77
2023-03-15T05:51:55.563Z,82.67
2023-03-15T05:54:43.490Z,82.61
2023-03-15T05:57:34.298Z,82.56
2023-03-15T06:00:25.098Z,82.89
2023-03-15T06:02:58.491Z,82.96
2023-03-15T06:05:48.884Z,82.77
2023-03-15T06:08:21.220Z,82.49
2023-03-15T06:10:51.775Z,82.47
2023-03-15T06:13:19.713Z,82.68
2023-03-15T06:15:48.124Z,82.58
2023-03-15T06:18:17.806Z,82.52
2023-03-15T06:20:47.949Z,82.38
2023-03-15T06:23:15.999Z,82.41
2023-03-15T06:25:47.138Z,82.15
2023-03-15T06:28:16.013Z,82.11
2023-03-15T06:30:50.722Z,82.40
2023-03-15T06:33:21.621Z,82.16
2023-03-15T06:35:50.256Z,82.29
2023-03-15T06:38:18.556Z,82.06
2023-03-15T06:40:46.405Z,82.03
2023-03-15T06:43:19.577Z,81.97
2023-03-15T06:45:47.764Z,82.11
2023-03-15T06:48:17.590Z,82.06
2023-03-15T06:50:47.676Z,82.12
2023-03-15T06:53:17.891Z,82.01
2023-03-15T06:55:46.889Z,81.86
2023-03-15T06:58:15.429Z,81.98
2023-03-15T07:00:44.567Z,81.80
2023-03-15T07:03:12.565Z,81.74
2023-03-15T07:05:40.570Z,81.96
2023-03-15T07:08:08.329Z,81.85
2023-03-15T07:10:36.699Z,81.81
2023-03-15T07:13:06.972Z,81.54
2023-03-15T07:15:37.401Z,81.26
2023-03-15T07:18:05.129Z,81.22
2023-03-15T07:20:35.567Z,81.05
2023-03-15T07:23:05.169Z,79.66
2023-03-15T07:25:37.633Z,79.15
2023-03-15T07:28:10.325Z,77.39
2023-03-15T07:30:38.088Z,77.05
2023-03-15T07:33:05.915Z,77.63
2023-03-15T07:35:34.168Z,77.63
2023-03-15T07:38:02.206Z,77.46
2023-03-15T07:40:30.366Z,77.19
2023-03-15T07:42:58.223Z,75.64
2023-03-15T07:45:25.944Z,76.21
2023-03-15T07:47:56.517Z,75.89
2023-03-15T07:50:24.440Z,76.12
2023-03-15T07:52:52.341Z,76.25
2023-03-15T07:55:20.145Z,76.09
2023-03-15T07:57:50.321Z,75.78
2023-03-15T08:00:19.664Z,75.49
2023-03-15T08:02:47.324Z,75.66
2023-03-15T08:05:15.404Z,77.11
2023-03-15T08:07:43.264Z,77.05
2023-03-15T08:10:11.895Z,77.12
2023-03-15T08:12:43.093Z,77.51
2023-03-15T08:15:15.643Z,78.27
2023-03-15T08:17:44.057Z,77.80
2023-03-15T08:20:17.718Z,78.02
2023-03-15T08:22:47.869Z,77.67
2023-03-15T08:25:19.026Z,78.53
2023-03-15T08:27:46.987Z,79.13
2023-03-15T08:30:16.337Z,79.32
2023-03-15T08:32:46.142Z,78.41
2023-03-15T08:35:16.717Z,78.70
2023-03-15T08:37:48.132Z,78.64
2023-03-15T08:40:25.124Z,78.16
2023-03-15T08:42:53.946Z,77.96
2023-03-15T08:45:26.271Z,77.58
2023-03-15T08:47:58.849Z,78.46
2023-03-15T08:50:28.644Z,77.79
2023-03-15T08:52:56.430Z,77.88
2023-03-15T08:55:24.193Z,77.81
2023-03-15T08:57:52.037Z,76.95
2023-03-15T09:00:25.687Z,77.17
2023-03-15T09:02:53.554Z,76.95
2023-03-15T09:05:22.918Z,77.18
2023-03-15T09:07:53.392Z,76.34
2023-03-15T09:10:22.264Z,76.69
2023-03-15T09:12:53.990Z,76.10
2023-03-15T09:15:22.095Z,77.02
2023-03-15T09:17:54.816Z,77.96
2023-03-15T09:20:28.269Z,77.81
2023-03-15T09:22:58.334Z,77.90
2023-03-15T09:25:27.237Z,77.57
2023-03-15T09:27:55.222Z,76.40
2023-03-15T09:30:23.131Z,74.61
2023-03-15T09:32:51.770Z,74.35
2023-03-15T09:35:21.538Z,73.82
2023-03-15T09:37:51.123Z,74.28
2023-03-15T09:40:32.454Z,74.70
2023-03-15T09:43:15.027Z,75.18
2023-03-15T09:46:20.169Z,74.19
2023-03-15T09:48:53.663Z,73.70
2023-03-15T09:51:48.165Z,74.39
2023-03-15T09:54:23.997Z,74.80
2023-03-15T09:57:05.130Z,74.31
2023-03-15T09:59:39.039Z,72.72
2023-03-15T10:02:33.928Z,73.17
2023-03-15T10:05:08.166Z,72.36
2023-03-15T10:07:36.976Z,73.52
2023-03-15T10:10:09.294Z,73.68
2023-03-15T10:12:44.126Z,73.84
2023-03-15T10:15:33.984Z,74.71
2023-03-15T10:18:22.309Z,74.28
2023-03-15T10:21:05.926Z,73.90
2023-03-15T10:23:49.895Z,73.03
2023-03-15T10:26:28.174Z,72.89
2023-03-15T10:28:59.058Z,71.53
2023-03-15T10:31:44.591Z,70.59
2023-03-15T10:34:14.156Z,69.87
2023-03-15T10:36:49.280Z,71.22
2023-03-15T10:39:17.684Z,71.77
2023-03-15T10:41:48.769Z,70.88
2023-03-15T10:44:25.701Z,70.24
2023-03-15T10:47:22.998Z,70.26
2023-03-15T10:49:58.103Z,69.91
2023-03-15T10:52:41.821Z,71.11
2023-03-15T10:55:17.261Z,70.73
2023-03-15T10:58:02.357Z,70.00
2023-03-15T11:00:36.432Z,66.98
2023-03-15T11:03:08.337Z,67.92
2023-03-15T11:05:46.354Z,67.30
2023-03-15T11:08:17.252Z,67.38
2023-03-15T11:10:47.277Z,66.68
2023-03-15T11:13:27.595Z,67.22
2023-03-15T11:16:13.881Z,66.81
2023-03-15T11:19:03.672Z,67.98
2023-03-15T11:21:34.336Z,65.41
2023-03-15T11:24:05.804Z,66.05
2023-03-15T11:26:44.106Z,67.90
2023-03-15T11:29:31.885Z,64.44
2023-03-15T11:32:02.554Z,61.97
2023-03-15T11:34:45.879Z,61.90
2023-03-15T11:37:45.761Z,63.72
2023-03-15T11:40:18.419Z,64.39
2023-03-15T11:43:21.755Z,61.46
2023-03-15T11:46:08.886Z,61.62
2023-03-15T11:49:00.595Z,62.93
2023-03-15T11:51:34.831Z,64.26
2023-03-15T11:54:13.707Z,63.86
2023-03-15T11:56:44.166Z,64.87
2023-03-15T11:59:16.100Z,64.16
2023-03-15T12:01:59.362Z,63.08
2023-03-15T12:04:32.809Z,61.52
2023-03-15T12:07:07.359Z,62.68
2023-03-15T12:09:37.826Z,60.14
2023-03-15T12:12:26.258Z,59.84
2023-03-15T12:15:15.079Z,58.52
2023-03-15T12:17:58.024Z,58.99
2023-03-15T12:20:42.945Z,58.16
2023-03-15T12:23:19.771Z,59.51
2023-03-15T12:26:02.197Z,59.27
2023-03-15T12:29:03.985Z,62.28
2023-03-15T12:31:52.690Z,61.04
2023-03-15T12:34:50.305Z,60.31
2023-03-15T12:37:40.720Z,60.46
2023-03-15T12:40:20.613Z,61.92
2023-03-15T12:42:48.468Z,61.97
2023-03-15T12:45:17.701Z,62.03
2023-03-15T12:47:51.693Z,63.72
2023-03-15T12:50:39.485Z,61.12
2023-03-15T12:53:22.590Z,60.96
2023-03-15T12:55:59.487Z,60.11
2023-03-15T12:58:39.287Z,59.97
2023-03-15T13:01:16.369Z,58.39
2023-03-15T13:03:44.966Z,57.06
2023-03-15T13:06:37.334Z,57.24
2023-03-15T13:09:33.777Z,55.49
2023-03-15T13:12:08.950Z,54.82
2023-03-15T13:15:04.521Z,55.94
2023-03-15T13:17:44.473Z,56.67
2023-03-15T13:20:38.622Z,56.58
2023-03-15T13:23:23.232Z,53.85
2023-03-15T13:26:02.831Z,59.14
2023-03-15T13:28:46.809Z,55.46
2023-03-15T13:31:23.801Z,51.40
2023-03-15T13:33:57.745Z,55.88
2023-03-15T13:36:46.342Z,56.17
2023-03-15T13:40:03.646Z,50.54
2023-03-15T13:42:32.062Z,52.46
2023-03-15T13:45:11.454Z,52.07
2023-03-15T13:47:45.234Z,55.16
2023-03-15T13:50:16.697Z,54.95
2023-03-15T13:52:45.990Z,52.55
2023-03-15T13:55:19.542Z,49.24
2023-03-15T13:57:48.173Z,49.95
2023-03-15T14:00:20.575Z,53.16
2023-03-15T14:03:00.837Z,52.93
2023-03-15T14:05:42.622Z,50.48
2023-03-15T14:08:45.872Z,55.26
2023-03-15T14:11:31.451Z,54.75
2023-03-15T14:14:04.307Z,54.12
2023-03-15T14:17:01.181Z,53.31
2023-03-15T14:19:35.021Z,49.64
2023-03-15T14:22:18.508Z,53.00
2023-03-15T14:24:51.168Z,55.68
2023-03-15T14:27:22.678Z,54.36
2023-03-15T14:29:54.592Z,54.93
2023-03-15T14:32:39.208Z,50.98
2023-03-15T14:35:08.107Z,52.50
2023-03-15T14:37:39.961Z,47.99
2023-03-15T14:40:21.832Z,48.01
2023-03-15T14:42:51.666Z,48.13
2023-03-15T14:45:22.455Z,51.68
2023-03-15T14:47:58.089Z,49.03
2023-03-15T14:50:38.022Z,52.56
2023-03-15T14:53:07.595Z,50.39
2023-03-15T14:55:37.868Z,50.24
2023-03-15T14:58:13.500Z,50.83
2023-03-15T15:00:42.864Z,50.25
2023-03-15T15:03:38.541Z,47.79
2023-03-15T15:06:11.191Z,51.84
2023-03-15T15:08:42.708Z,51.18
2023-03-15T15:11:11.227Z,48.43
2023-03-15T15:13:40.473Z,49.70
2023-03-15T15:16:09.290Z,50.01
2023-03-15T15:18:38.075Z,48.91
2023-03-15T15:21:29.868Z,47.91
2023-03-15T15:23:59.427Z,47.43
2023-03-15T15:26:30.808Z,48.02
2023-03-15T15:28:59.669Z,50.02
2023-03-15T15:31:29.588Z,47.56
2023-03-15T15:33:57.634Z,50.96
2023-03-15T15:36:32.689Z,50.78
2023-03-15T15:39:06.384Z,50.79
2023-03-15T15:41:34.813Z,51.39
2023-03-15T15:44:02.720Z,49.92
2023-03-15T15:46:30.676Z,50.92
2023-03-15T15:48:58.900Z,50.85
2023-03-15T15:51:38.760Z,52.52
2023-03-15T15:54:12.688Z,50.93
2023-03-15T15:56:51.122Z,53.74
2023-03-15T15:59:19.048Z,53.27
2023-03-15T16:02:00.576Z,53.19
2023-03-15T16:04:30.523Z,50.88
2023-03-15T16:07:02.346Z,58.43
2023-03-15T16:09:35.833Z,54.33
2023-03-15T16:12:11.071Z,54.40
2023-03-15T16:14:38.770Z,56.03
2023-03-15T16:17:21.708Z,51.49
2023-03-15T16:19:50.151Z,54.02
2023-03-15T16:22:21.541Z,51.97
2023-03-15T16:24:54.827Z,52.24
2023-03-15T16:27:27.002Z,52.66
2023-03-15T16:29:56.201Z,54.75
2023-03-15T16:32:37.201Z,54.38
2023-03-15T16:35:16.242Z,55.31
2023-03-15T16:37:45.861Z,54.15
2023-03-15T16:40:23.206Z,50.16
2023-03-15T16:42:51.308Z,53.45
2023-03-15T16:45:19.659Z,54.55
2023-03-15T16:47:48.846Z,53.10
2023-03-15T16:50:16.813Z,50.85
2023-03-15T16:52:48.021Z,53.25
2023-03-15T16:55:20.269Z,53.94
2023-03-15T16:57:47.977Z,54.13
2023-03-15T17:00:20.410Z,54.53
2023-03-15T17:02:52.342Z,55.59
2023-03-15T17:05:21.358Z,53.90
2023-03-15T17:07:51.403Z,55.39
2023-03-15T17:10:29.440Z,56.80
2023-03-15T17:13:02.045Z,58.42
2023-03-15T17:15:31.007Z,59.16
2023-03-15T17:17:58.918Z,60.50
2023-03-15T17:20:28.646Z,59.63
2023-03-15T17:23:05.196Z,60.49
2023-03-15T17:25:34.480Z,64.97
2023-03-15T17:28:02.794Z,61.56
2023-03-15T17:30:34.275Z,61.40
2023-03-15T17:33:02.861Z,58.59
2023-03-15T17:35:55.020Z,60.42
2023-03-15T17:38:27.152Z,65.23
2023-03-15T17:40:55.452Z,66.05
2023-03-15T17:43:23.366Z,68.98
2023-03-15T17:45:52.527Z,68.84
2023-03-15T17:48:20.321Z,68.78
2023-03-15T17:50:48.408Z,63.16
2023-03-15T17:53:19.797Z,64.29
2023-03-15T17:55:49.317Z,61.87
2023-03-15T17:58:23.175Z,60.65
2023-03-15T18:00:54.884Z,62.43
2023-03-15T18:03:24.157Z,58.48
2023-03-15T18:05:52.259Z,59.50
2023-03-15T18:08:22.425Z,57.77
2023-03-15T18:10:52.069Z,58.86
2023-03-15T18:13:21.758Z,61.15
2023-03-15T18:15:51.264Z,62.56
2023-03-15T18:18:19.312Z,59.94
2023-03-15T18:20:49.698Z,58.99
2023-03-15T18:23:19.007Z,62.32
2023-03-15T18:25:47.202Z,58.84
2023-03-15T18:28:14.971Z,58.92
2023-03-15T18:30:44.424Z,61.12
2023-03-15T18:33:14.232Z,60.15
2023-03-15T18:35:42.093Z,59.11
2023-03-15T18:38:10.025Z,61.83
2023-03-15T18:40:37.791Z,61.21
2023-03-15T18:43:05.957Z,62.61
2023-03-15T18:45:35.820Z,64.19
2023-03-15T18:48:04.593Z,61.58
2023-03-15T18:50:33.664Z,60.48
2023-03-15T18:53:04.989Z,63.14
2023-03-15T18:55:34.307Z,62.64
2023-03-15T18:58:02.256Z,62.35
2023-03-15T19:00:36.052Z,61.98
2023-03-15T19:03:06.437Z,60.88
2023-03-15T19:05:37.471Z,61.79
2023-03-15T19:08:05.453Z,62.09
2023-03-15T19:10:33.314Z,63.44
2023-03-15T19:13:02.968Z,63.83
2023-03-15T19:15:32.225Z,63.83
2023-03-15T19:18:00.908Z,64.07
2023-03-15T19:20:28.849Z,64.95
2023-03-15T19:22:56.557Z,64.38
2023-03-15T19:25:24.371Z,62.12
2023-03-15T19:27:52.267Z,63.47
2023-03-15T19:30:22.554Z,62.50
2023-03-15T19:32:51.346Z,64.05
2023-03-15T19:35:21.360Z,63.44
2023-03-15T19:37:50.162Z,65.67
2023-03-15T19:40:18.748Z,66.11
2023-03-15T19:42:48.837Z,63.39
2023-03-15T19:45:17.573Z,63.47
2023-03-15T19:47:45.603Z,62.96
2023-03-15T19:50:14.876Z,63.15
2023-03-15T19:52:48.828Z,64.32
2023-03-15T19:55:21.219Z,63.90
2023-03-15T19:57:49.127Z,64.85
2023-03-15T20:00:19.188Z,64.03
2023-03-15T20:02:48.014Z,64.71
2023-03-15T20:05:19.374Z,64.78
2023-03-15T20:07:48.916Z,65.27
2023-03-15T20:10:16.852Z,65.89
2023-03-15T20:12:45.674Z,65.92
2023-03-15T20:15:17.120Z,65.80
2023-03-15T20:17:45.696Z,66.17
2023-03-15T20:20:14.888Z,66.34
2023-03-15T20:22:44.576Z,65.98
2023-03-15T20:25:18.426Z,65.77
2023-03-15T20:27:46.678Z,67.31
2023-03-15T20:30:16.406Z,65.69
2023-03-15T20:32:44.882Z,67.92
2023-03-15T20:35:13.119Z,67.25
2023-03-15T20:37:42.515Z,66.45
2023-03-15T20:40:14.853Z,67.10
2023-03-15T20:42:43.851Z,66.30
2023-03-15T20:45:13.889Z,66.35
2023-03-15T20:47:42.607Z,65.61
2023-03-15T20:50:11.986Z,65.75
2023-03-15T20:52:41.116Z,67.45
2023-03-15T20:55:10.331Z,67.68
2023-03-15T20:57:41.585Z,66.39
2023-03-15T21:00:13.016Z,67.08
2023-03-15T21:02:42.041Z,66.02
2023-03-15T21:05:13.492Z,66.06
2023-03-15T21:07:42.501Z,66.30
2023-03-15T21:10:14.280Z,66.79
2023-03-15T21:12:42.730Z,67.78
2023-03-15T21:15:17.913Z,66.27
2023-03-15T21:17:49.217Z,67.41
2023-03-15T21:20:18.484Z,66.89
2023-03-15T21:22:46.524Z,68.03
2023-03-15T21:25:14.668Z,68.08
2023-03-15T21:27:42.769Z,69.01
2023-03-15T21:30:14.163Z,68.48
2023-03-15T21:32:42.986Z,69.06
2023-03-15T21:35:11.491Z,67.55
2023-03-15T21:37:40.314Z,67.78
2023-03-15T21:40:09.301Z,67.13
2023-03-15T21:42:37.328Z,68.97
2023-03-15T21:45:07.715Z,69.44
2023-03-15T21:47:35.602Z,68.09
2023-03-15T21:50:03.659Z,68.51
2023-03-15T21:52:31.570Z,68.98
2023-03-15T21:54:59.769Z,68.45
2023-03-15T21:57:27.716Z,68.62
2023-03-15T21:59:55.338Z,69.94
2023-03-15T22:02:23.196Z,68.64
2023-03-15T22:04:52.004Z,69.16
2023-03-15T22:07:19.852Z,69.53
2023-03-15T22:09:47.554Z,69.81
2023-03-15T22:12:16.085Z,70.28
2023-03-15T22:14:45.911Z,69.20
2023-03-15T22:17:15.309Z,69.99
2023-03-15T22:19:43.394Z,68.68
2023-03-15T22:22:11.555Z,68.47
2023-03-15T22:24:39.376Z,68.90
2023-03-15T22:27:07.291Z,68.20
2023-03-15T22:29:35.077Z,68.03
2023-03-15T22:32:04.094Z,67.50
2023-03-15T22:34:34.226Z,67.42
2023-03-15T22:37:02.293Z,68.72
2023-03-15T22:39:34.506Z,68.26
2023-03-15T22:42:02.318Z,68.84
2023-03-15T22:44:30.578Z,69.29
2023-03-15T22:46:58.721Z,68.91
2023-03-15T22:49:26.621Z,68.62
2023-03-15T22:51:54.272Z,69.04
2023-03-15T22:54:22.094Z,69.87
2023-03-15T22:56:49.799Z,68.75
2023-03-15T22:59:17.774Z,69.09
2023-03-15T23:01:45.662Z,68.30
2023-03-15T23:04:13.682Z,68.53
2023-03-15T23:06:41.757Z,68.46
2023-03-15T23:09:09.597Z,68.26
2023-03-15T23:11:37.455Z,68.49
2023-03-15T23:14:05.315Z,68.28
2023-03-15T23:16:33.099Z,67.76
2023-03-15T23:19:03.414Z,68.36
2023-03-15T23:21:31.248Z,67.58
2023-03-15T23:23:59.149Z,67.55
2023-03-15T23:26:27.720Z,67.26
2023-03-15T23:28:56.200Z,68.50
2023-03-15T23:31:23.982Z,68.78
2023-03-15T23:33:51.766Z,68.64
2023-03-15T23:36:19.498Z,69.05
2023-03-15T23:38:47.241Z,69.21
2023-03-15T23:41:15.021Z,68.95
2023-03-15T23:43:42.686Z,68.43
2023-03-15T23:46:10.456Z,68.17
2023-03-15T23:48:38.126Z,68.09
2023-03-15T23:51:05.995Z,67.06
2023-03-15T23:53:33.854Z,66.46
2023-03-15T23:56:02.364Z,66.48
2023-03-15T23:58:30.085Z,66.69
